sensor_id;sensor_type;location;lat;lon;timestamp;temperature;humidity
39219;DHT22;24934;52.752;6.964;2023-06-04T00:00:19;8.70;99.90
39219;DHT22;24934;52.752;6.964;2023-06-04T00:02:44;8.70;99.90
39219;DHT22;24934;52.752;6.964;2023-06-04T00:05:16;8.60;99.90
39219;DHT22;24934;52.752;6.964;2023-06-04T00:07:42;8.60;99.90
39219;DHT22;24934;52.752;6.964;2023-06-04T00:10:08;8.50;99.90
39219;DHT22;24934;52.752;6.964;2023-06-04T00:12:34;8.50;99.90
39219;DHT22;24934;52.752;6.964;2023-06-04T00:15:00;8.40;99.90
39219;DHT22;24934;52.752;6.964;2023-06-04T00:17:34;8.40;99.90
39219;DHT22;24934;52.752;6.964;2023-06-04T00:20:00;8.40;99.90
39219;DHT22;24934;52.752;6.964;2023-06-04T00:22:25;8.30;99.90
39219;DHT22;24934;52.752;6.964;2023-06-04T00:24:54;8.30;99.90
39219;DHT22;24934;52.752;6.964;2023-06-04T00:27:43;8.30;99.90
39219;DHT22;24934;52.752;6.964;2023-06-04T00:30:11;8.30;99.90
39219;DHT22;24934;52.752;6.964;2023-06-04T00:32:37;8.30;99.90
39219;DHT22;24934;52.752;6.964;2023-06-04T00:35:06;8.30;99.90
39219;DHT22;24934;52.752;6.964;2023-06-04T00:37:32;8.20;99.90
39219;DHT22;24934;52.752;6.964;2023-06-04T00:40:03;8.20;99.90
39219;DHT22;24934;52.752;6.964;2023-06-04T00:42:33;8.20;99.90
39219;DHT22;24934;52.752;6.964;2023-06-04T00:44:58;8.20;99.90
39219;DHT22;24934;52.752;6.964;2023-06-04T00:47:24;8.20;99.90
39219;DHT22;24934;52.752;6.964;2023-06-04T00:49:50;8.20;99.90
39219;DHT22;24934;52.752;6.964;2023-06-04T00:52:17;8.20;99.90
39219;DHT22;24934;52.752;6.964;2023-06-04T00:54:43;8.20;99.90
39219;DHT22;24934;52.752;6.964;2023-06-04T00:57:12;8.20;99.90
39219;DHT22;24934;52.752;6.964;2023-06-04T00:59:39;8.10;99.90
39219;DHT22;24934;52.752;6.964;2023-06-04T01:02:11;8.10;99.90
39219;DHT22;24934;52.752;6.964;2023-06-04T01:07:38;8.00;99.90
39219;DHT22;24934;52.752;6.964;2023-06-04T01:10:06;8.00;99.90
39219;DHT22;24934;52.752;6.964;2023-06-04T01:12:33;7.90;99.90
39219;DHT22;24934;52.752;6.964;2023-06-04T01:14:58;7.90;99.90
39219;DHT22;24934;52.752;6.964;2023-06-04T01:17:37;7.90;99.90
39219;DHT22;24934;52.752;6.964;2023-06-04T01:23:14;7.90;99.90
39219;DHT22;24934;52.752;6.964;2023-06-04T01:25:41;7.90;99.90
39219;DHT22;24934;52.752;6.964;2023-06-04T01:28:10;7.80;99.90
39219;DHT22;24934;52.752;6.964;2023-06-04T01:30:40;7.80;99.90
39219;DHT22;24934;52.752;6.964;2023-06-04T01:33:13;7.80;99.90
39219;DHT22;24934;52.752;6.964;2023-06-04T01:35:39;7.80;99.90
39219;DHT22;24934;52.752;6.964;2023-06-04T01:38:10;7.80;99.90
39219;DHT22;24934;52.752;6.964;2023-06-04T01:40:36;7.70;99.90
39219;DHT22;24934;52.752;6.964;2023-06-04T01:43:03;7.70;99.90
39219;DHT22;24934;52.752;6.964;2023-06-04T01:45:31;7.70;99.90
39219;DHT22;24934;52.752;6.964;2023-06-04T01:48:00;7.70;99.90
39219;DHT22;24934;52.752;6.964;2023-06-04T01:50:25;7.70;99.90
39219;DHT22;24934;52.752;6.964;2023-06-04T01:52:51;7.70;99.90
39219;DHT22;24934;52.752;6.964;2023-06-04T01:55:17;7.70;99.90
39219;DHT22;24934;52.752;6.964;2023-06-04T01:57:47;7.70;99.90
39219;DHT22;24934;52.752;6.964;2023-06-04T02:00:13;7.60;99.90
39219;DHT22;24934;52.752;6.964;2023-06-04T02:02:41;7.60;99.90
39219;DHT22;24934;52.752;6.964;2023-06-04T02:05:10;7.60;99.90
39219;DHT22;24934;52.752;6.964;2023-06-04T02:07:46;7.60;99.90
39219;DHT22;24934;52.752;6.964;2023-06-04T02:10:15;7.60;99.90
39219;DHT22;24934;52.752;6.964;2023-06-04T02:15:22;7.50;99.90
39219;DHT22;24934;52.752;6.964;2023-06-04T02:17:53;7.50;99.90
39219;DHT22;24934;52.752;6.964;2023-06-04T02:20:20;7.50;99.90
39219;DHT22;24934;52.752;6.964;2023-06-04T02:22:46;7.50;99.90
39219;DHT22;24934;52.752;6.964;2023-06-04T02:25:13;7.50;99.90
39219;DHT22;24934;52.752;6.964;2023-06-04T02:27:38;7.50;99.90
39219;DHT22;24934;52.752;6.964;2023-06-04T02:30:05;7.50;99.90
39219;DHT22;24934;52.752;6.964;2023-06-04T02:32:31;7.50;99.90
39219;DHT22;24934;52.752;6.964;2023-06-04T02:34:59;7.50;99.90
39219;DHT22;24934;52.752;6.964;2023-06-04T02:37:27;7.50;99.90
39219;DHT22;24934;52.752;6.964;2023-06-04T02:39:53;7.50;99.90
39219;DHT22;24934;52.752;6.964;2023-06-04T02:42:18;7.50;99.90
39219;DHT22;24934;52.752;6.964;2023-06-04T02:44:44;7.50;99.90
39219;DHT22;24934;52.752;6.964;2023-06-04T02:47:09;7.50;99.90
39219;DHT22;24934;52.752;6.964;2023-06-04T02:49:35;7.50;99.90
39219;DHT22;24934;52.752;6.964;2023-06-04T02:52:01;7.60;99.90
39219;DHT22;24934;52.752;6.964;2023-06-04T02:54:26;7.60;99.90
39219;DHT22;24934;52.752;6.964;2023-06-04T02:56:52;7.60;99.90
39219;DHT22;24934;52.752;6.964;2023-06-04T02:59:18;7.60;99.90
39219;DHT22;24934;52.752;6.964;2023-06-04T03:01:44;7.60;99.90
39219;DHT22;24934;52.752;6.964;2023-06-04T03:04:10;7.60;99.90
39219;DHT22;24934;52.752;6.964;2023-06-04T03:06:43;7.70;99.90
39219;DHT22;24934;52.752;6.964;2023-06-04T03:09:11;7.60;99.90
39219;DHT22;24934;52.752;6.964;2023-06-04T03:11:37;7.60;99.90
39219;DHT22;24934;52.752;6.964;2023-06-04T03:14:03;7.60;99.90
39219;DHT22;24934;52.752;6.964;2023-06-04T03:16:31;7.60;99.90
39219;DHT22;24934;52.752;6.964;2023-06-04T03:18:59;7.50;99.90
39219;DHT22;24934;52.752;6.964;2023-06-04T03:21:26;7.60;99.90
39219;DHT22;24934;52.752;6.964;2023-06-04T03:23:51;7.50;99.90
39219;DHT22;24934;52.752;6.964;2023-06-04T03:26:17;7.50;99.90
39219;DHT22;24934;52.752;6.964;2023-06-04T03:28:42;7.50;99.90
39219;DHT22;24934;52.752;6.964;2023-06-04T03:31:08;7.50;99.90
39219;DHT22;24934;52.752;6.964;2023-06-04T03:33:33;7.50;99.90
39219;DHT22;24934;52.752;6.964;2023-06-04T03:36:02;7.50;99.90
39219;DHT22;24934;52.752;6.964;2023-06-04T03:38:28;7.60;99.90
39219;DHT22;24934;52.752;6.964;2023-06-04T03:40:54;7.60;99.90
39219;DHT22;24934;52.752;6.964;2023-06-04T03:43:20;7.60;99.90
39219;DHT22;24934;52.752;6.964;2023-06-04T03:45:46;7.70;99.90
39219;DHT22;24934;52.752;6.964;2023-06-04T03:48:11;7.60;99.90
39219;DHT22;24934;52.752;6.964;2023-06-04T03:50:37;7.60;99.90
39219;DHT22;24934;52.752;6.964;2023-06-04T03:53:05;7.60;99.90
39219;DHT22;24934;52.752;6.964;2023-06-04T03:55:33;7.50;99.90
39219;DHT22;24934;52.752;6.964;2023-06-04T03:57:59;7.60;99.90
39219;DHT22;24934;52.752;6.964;2023-06-04T04:00:28;7.50;99.90
39219;DHT22;24934;52.752;6.964;2023-06-04T04:02:54;7.50;99.90
39219;DHT22;24934;52.752;6.964;2023-06-04T04:05:21;7.60;99.90
39219;DHT22;24934;52.752;6.964;2023-06-04T04:07:47;7.60;99.90
39219;DHT22;24934;52.752;6.964;2023-06-04T04:10:16;7.70;99.90
39219;DHT22;24934;52.752;6.964;2023-06-04T04:12:41;7.80;99.90
39219;DHT22;24934;52.752;6.964;2023-06-04T04:15:07;7.80;99.90
39219;DHT22;24934;52.752;6.964;2023-06-04T04:17:33;7.90;99.90
39219;DHT22;24934;52.752;6.964;2023-06-04T04:19:59;7.90;99.90
39219;DHT22;24934;52.752;6.964;2023-06-04T04:22:25;7.90;99.90
39219;DHT22;24934;52.752;6.964;2023-06-04T04:24:50;8.00;99.90
39219;DHT22;24934;52.752;6.964;2023-06-04T04:27:16;8.00;99.90
39219;DHT22;24934;52.752;6.964;2023-06-04T04:29:42;8.10;99.90
39219;DHT22;24934;52.752;6.964;2023-06-04T04:32:09;8.40;99.90
39219;DHT22;24934;52.752;6.964;2023-06-04T04:34:38;8.80;99.90
39219;DHT22;24934;52.752;6.964;2023-06-04T04:37:08;9.20;99.90
39219;DHT22;24934;52.752;6.964;2023-06-04T04:39:35;9.40;99.90
39219;DHT22;24934;52.752;6.964;2023-06-04T04:42:06;9.40;99.90
39219;DHT22;24934;52.752;6.964;2023-06-04T04:44:41;9.40;99.90
39219;DHT22;24934;52.752;6.964;2023-06-04T04:47:06;9.50;99.90
39219;DHT22;24934;52.752;6.964;2023-06-04T04:49:34;9.50;99.90
39219;DHT22;24934;52.752;6.964;2023-06-04T04:52:00;9.60;99.90
39219;DHT22;24934;52.752;6.964;2023-06-04T04:54:26;9.70;99.90
39219;DHT22;24934;52.752;6.964;2023-06-04T04:56:51;9.70;99.90
39219;DHT22;24934;52.752;6.964;2023-06-04T04:59:17;9.80;99.90
39219;DHT22;24934;52.752;6.964;2023-06-04T05:01:49;10.00;99.90
39219;DHT22;24934;52.752;6.964;2023-06-04T05:04:14;10.20;99.90
39219;DHT22;24934;52.752;6.964;2023-06-04T05:06:40;10.30;99.90
39219;DHT22;24934;52.752;6.964;2023-06-04T05:09:06;10.40;99.90
39219;DHT22;24934;52.752;6.964;2023-06-04T05:11:33;10.40;99.90
39219;DHT22;24934;52.752;6.964;2023-06-04T05:13:58;10.50;99.90
39219;DHT22;24934;52.752;6.964;2023-06-04T05:16:24;10.60;99.90
39219;DHT22;24934;52.752;6.964;2023-06-04T05:18:50;10.70;99.90
39219;DHT22;24934;52.752;6.964;2023-06-04T05:21:20;10.80;99.90
39219;DHT22;24934;52.752;6.964;2023-06-04T05:23:45;10.90;99.90
39219;DHT22;24934;52.752;6.964;2023-06-04T05:26:13;10.90;99.90
39219;DHT22;24934;52.752;6.964;2023-06-04T05:28:40;11.00;99.90
39219;DHT22;24934;52.752;6.964;2023-06-04T05:31:09;11.10;99.90
39219;DHT22;24934;52.752;6.964;2023-06-04T05:33:35;11.10;99.90
39219;DHT22;24934;52.752;6.964;2023-06-04T05:36:01;11.20;99.90
39219;DHT22;24934;52.752;6.964;2023-06-04T05:38:29;11.30;99.90
39219;DHT22;24934;52.752;6.964;2023-06-04T05:40:56;11.40;99.90
39219;DHT22;24934;52.752;6.964;2023-06-04T05:43:22;11.40;99.90
39219;DHT22;24934;52.752;6.964;2023-06-04T05:45:48;11.50;99.90
39219;DHT22;24934;52.752;6.964;2023-06-04T05:48:14;11.60;99.90
39219;DHT22;24934;52.752;6.964;2023-06-04T05:50:39;11.60;99.90
39219;DHT22;24934;52.752;6.964;2023-06-04T05:53:05;11.70;99.90
39219;DHT22;24934;52.752;6.964;2023-06-04T05:55:31;11.70;99.90
39219;DHT22;24934;52.752;6.964;2023-06-04T05:57:57;11.80;99.90
39219;DHT22;24934;52.752;6.964;2023-06-04T06:00:23;11.90;99.90
39219;DHT22;24934;52.752;6.964;2023-06-04T06:02:52;12.00;99.90
39219;DHT22;24934;52.752;6.964;2023-06-04T06:05:20;12.10;99.90
39219;DHT22;24934;52.752;6.964;2023-06-04T06:07:55;12.20;99.90
39219;DHT22;24934;52.752;6.964;2023-06-04T06:10:21;12.30;99.90
39219;DHT22;24934;52.752;6.964;2023-06-04T06:12:47;12.40;99.90
39219;DHT22;24934;52.752;6.964;2023-06-04T06:15:13;12.50;99.90
39219;DHT22;24934;52.752;6.964;2023-06-04T06:17:38;12.60;99.90
39219;DHT22;24934;52.752;6.964;2023-06-04T06:20:04;12.60;99.90
39219;DHT22;24934;52.752;6.964;2023-06-04T06:22:34;12.70;99.90
39219;DHT22;24934;52.752;6.964;2023-06-04T06:25:01;12.80;99.90
39219;DHT22;24934;52.752;6.964;2023-06-04T06:27:27;12.80;99.90
39219;DHT22;24934;52.752;6.964;2023-06-04T06:29:56;12.90;99.90
39219;DHT22;24934;52.752;6.964;2023-06-04T06:32:22;13.00;99.90
39219;DHT22;24934;52.752;6.964;2023-06-04T06:34:48;13.00;99.90
39219;DHT22;24934;52.752;6.964;2023-06-04T06:37:13;13.10;99.90
39219;DHT22;24934;52.752;6.964;2023-06-04T06:39:39;13.10;99.90
39219;DHT22;24934;52.752;6.964;2023-06-04T06:42:04;13.20;99.90
39219;DHT22;24934;52.752;6.964;2023-06-04T06:44:30;13.40;99.90
39219;DHT22;24934;52.752;6.964;2023-06-04T06:46:56;13.50;99.90
39219;DHT22;24934;52.752;6.964;2023-06-04T06:49:21;13.60;99.90
39219;DHT22;24934;52.752;6.964;2023-06-04T06:51:47;13.70;99.90
39219;DHT22;24934;52.752;6.964;2023-06-04T06:54:15;13.90;99.90
39219;DHT22;24934;52.752;6.964;2023-06-04T06:56:44;14.00;99.90
39219;DHT22;24934;52.752;6.964;2023-06-04T06:59:10;14.20;99.90
39219;DHT22;24934;52.752;6.964;2023-06-04T07:01:38;14.40;99.90
39219;DHT22;24934;52.752;6.964;2023-06-04T07:04:04;14.50;99.90
39219;DHT22;24934;52.752;6.964;2023-06-04T07:06:29;14.60;99.90
39219;DHT22;24934;52.752;6.964;2023-06-04T07:08:55;14.70;99.90
39219;DHT22;24934;52.752;6.964;2023-06-04T07:11:21;14.70;99.90
39219;DHT22;24934;52.752;6.964;2023-06-04T07:13:47;14.80;99.90
39219;DHT22;24934;52.752;6.964;2023-06-04T07:16:13;14.90;99.90
39219;DHT22;24934;52.752;6.964;2023-06-04T07:18:38;15.00;99.90
39219;DHT22;24934;52.752;6.964;2023-06-04T07:21:04;15.00;99.90
39219;DHT22;24934;52.752;6.964;2023-06-04T07:23:30;15.10;99.90
39219;DHT22;24934;52.752;6.964;2023-06-04T07:25:56;15.20;99.90
39219;DHT22;24934;52.752;6.964;2023-06-04T07:28:23;15.30;99.90
39219;DHT22;24934;52.752;6.964;2023-06-04T07:30:48;15.30;99.90
39219;DHT22;24934;52.752;6.964;2023-06-04T07:33:14;15.40;99.90
39219;DHT22;24934;52.752;6.964;2023-06-04T07:35:42;15.50;99.90
39219;DHT22;24934;52.752;6.964;2023-06-04T07:38:08;15.40;99.90
39219;DHT22;24934;52.752;6.964;2023-06-04T07:40:33;15.50;99.90
39219;DHT22;24934;52.752;6.964;2023-06-04T07:42:59;15.60;99.90
39219;DHT22;24934;52.752;6.964;2023-06-04T07:45:25;15.70;99.90
39219;DHT22;24934;52.752;6.964;2023-06-04T07:47:50;15.70;99.90
39219;DHT22;24934;52.752;6.964;2023-06-04T07:50:16;15.80;99.90
39219;DHT22;24934;52.752;6.964;2023-06-04T07:52:42;15.90;99.90
39219;DHT22;24934;52.752;6.964;2023-06-04T07:55:11;16.00;99.90
39219;DHT22;24934;52.752;6.964;2023-06-04T07:57:39;16.10;99.90
39219;DHT22;24934;52.752;6.964;2023-06-04T08:00:06;16.50;99.90
39219;DHT22;24934;52.752;6.964;2023-06-04T08:02:33;17.70;99.90
39219;DHT22;24934;52.752;6.964;2023-06-04T08:05:00;19.20;99.90
39219;DHT22;24934;52.752;6.964;2023-06-04T08:07:28;20.30;99.90
39219;DHT22;24934;52.752;6.964;2023-06-04T08:09:56;21.50;99.90
39219;DHT22;24934;52.752;6.964;2023-06-04T08:12:22;22.20;99.90
39219;DHT22;24934;52.752;6.964;2023-06-04T08:14:48;23.50;99.90
39219;DHT22;24934;52.752;6.964;2023-06-04T08:17:15;24.30;99.90
39219;DHT22;24934;52.752;6.964;2023-06-04T08:19:41;25.60;99.90
39219;DHT22;24934;52.752;6.964;2023-06-04T08:22:08;26.10;99.90
39219;DHT22;24934;52.752;6.964;2023-06-04T08:24:36;26.50;99.90
39219;DHT22;24934;52.752;6.964;2023-06-04T08:27:02;26.60;97.70
39219;DHT22;24934;52.752;6.964;2023-06-04T08:29:28;27.10;97.00
39219;DHT22;24934;52.752;6.964;2023-06-04T08:31:56;26.80;95.70
39219;DHT22;24934;52.752;6.964;2023-06-04T08:34:21;26.40;95.70
39219;DHT22;24934;52.752;6.964;2023-06-04T08:36:47;26.90;94.70
39219;DHT22;24934;52.752;6.964;2023-06-04T08:39:13;27.00;93.20
39219;DHT22;24934;52.752;6.964;2023-06-04T08:41:52;27.10;93.30
39219;DHT22;24934;52.752;6.964;2023-06-04T08:44:18;27.90;92.40
39219;DHT22;24934;52.752;6.964;2023-06-04T08:46:44;28.20;92.40
39219;DHT22;24934;52.752;6.964;2023-06-04T08:49:12;28.60;91.80
39219;DHT22;24934;52.752;6.964;2023-06-04T08:51:39;29.10;91.00
39219;DHT22;24934;52.752;6.964;2023-06-04T08:54:06;28.80;91.60
39219;DHT22;24934;52.752;6.964;2023-06-04T08:56:33;28.70;89.70
39219;DHT22;24934;52.752;6.964;2023-06-04T08:59:01;28.50;89.00
39219;DHT22;24934;52.752;6.964;2023-06-04T09:01:28;28.20;89.60
39219;DHT22;24934;52.752;6.964;2023-06-04T09:03:54;28.60;90.00
39219;DHT22;24934;52.752;6.964;2023-06-04T09:06:24;28.20;89.00
39219;DHT22;24934;52.752;6.964;2023-06-04T09:08:50;29.20;90.40
39219;DHT22;24934;52.752;6.964;2023-06-04T09:11:18;29.30;87.90
39219;DHT22;24934;52.752;6.964;2023-06-04T09:13:47;29.40;85.10
39219;DHT22;24934;52.752;6.964;2023-06-04T09:16:13;29.60;85.10
39219;DHT22;24934;52.752;6.964;2023-06-04T09:18:39;29.30;83.80
39219;DHT22;24934;52.752;6.964;2023-06-04T09:21:07;28.90;85.50
39219;DHT22;24934;52.752;6.964;2023-06-04T09:23:46;28.80;86.30
39219;DHT22;24934;52.752;6.964;2023-06-04T09:26:13;28.20;86.10
39219;DHT22;24934;52.752;6.964;2023-06-04T09:28:45;28.40;86.60
39219;DHT22;24934;52.752;6.964;2023-06-04T09:31:17;28.60;85.00
39219;DHT22;24934;52.752;6.964;2023-06-04T09:33:47;28.70;83.70
39219;DHT22;24934;52.752;6.964;2023-06-04T09:36:13;28.60;83.50
39219;DHT22;24934;52.752;6.964;2023-06-04T09:38:39;28.60;83.80
39219;DHT22;24934;52.752;6.964;2023-06-04T09:41:13;28.70;84.20
39219;DHT22;24934;52.752;6.964;2023-06-04T09:43:39;28.70;84.30
39219;DHT22;24934;52.752;6.964;2023-06-04T09:46:13;28.80;82.40
39219;DHT22;24934;52.752;6.964;2023-06-04T09:48:40;28.90;84.20
39219;DHT22;24934;52.752;6.964;2023-06-04T09:51:10;28.60;83.00
39219;DHT22;24934;52.752;6.964;2023-06-04T09:53:40;28.60;82.70
39219;DHT22;24934;52.752;6.964;2023-06-04T09:56:07;28.90;83.20
39219;DHT22;24934;52.752;6.964;2023-06-04T09:58:37;29.10;83.50
39219;DHT22;24934;52.752;6.964;2023-06-04T10:01:04;28.90;81.20
39219;DHT22;24934;52.752;6.964;2023-06-04T10:03:35;28.80;80.60
39219;DHT22;24934;52.752;6.964;2023-06-04T10:06:04;29.50;82.20
39219;DHT22;24934;52.752;6.964;2023-06-04T10:08:31;29.60;81.70
39219;DHT22;24934;52.752;6.964;2023-06-04T10:11:02;29.20;80.80
39219;DHT22;24934;52.752;6.964;2023-06-04T10:13:41;28.50;82.10
39219;DHT22;24934;52.752;6.964;2023-06-04T10:16:09;28.20;83.50
39219;DHT22;24934;52.752;6.964;2023-06-04T10:18:36;27.70;83.50
39219;DHT22;24934;52.752;6.964;2023-06-04T10:21:02;27.80;84.90
39219;DHT22;24934;52.752;6.964;2023-06-04T10:23:28;27.60;83.50
39219;DHT22;24934;52.752;6.964;2023-06-04T10:25:54;28.10;81.80
39219;DHT22;24934;52.752;6.964;2023-06-04T10:28:22;28.00;80.20
39219;DHT22;24934;52.752;6.964;2023-06-04T10:30:48;28.70;79.90
39219;DHT22;24934;52.752;6.964;2023-06-04T10:33:23;28.90;83.80
39219;DHT22;24934;52.752;6.964;2023-06-04T10:35:53;29.20;82.50
39219;DHT22;24934;52.752;6.964;2023-06-04T10:38:20;29.20;81.40
39219;DHT22;24934;52.752;6.964;2023-06-04T10:40:47;29.10;80.60
39219;DHT22;24934;52.752;6.964;2023-06-04T10:43:14;28.80;79.80
39219;DHT22;24934;52.752;6.964;2023-06-04T10:45:42;28.70;78.40
39219;DHT22;24934;52.752;6.964;2023-06-04T10:48:16;28.30;80.10
39219;DHT22;24934;52.752;6.964;2023-06-04T10:50:50;28.50;81.80
39219;DHT22;24934;52.752;6.964;2023-06-04T10:53:20;28.50;79.90
39219;DHT22;24934;52.752;6.964;2023-06-04T10:55:49;28.10;80.70
39219;DHT22;24934;52.752;6.964;2023-06-04T10:58:15;28.40;79.80
39219;DHT22;24934;52.752;6.964;2023-06-04T11:00:45;28.90;80.40
39219;DHT22;24934;52.752;6.964;2023-06-04T11:03:15;28.80;81.20
39219;DHT22;24934;52.752;6.964;2023-06-04T11:05:43;28.40;78.30
39219;DHT22;24934;52.752;6.964;2023-06-04T11:08:09;28.00;79.20
39219;DHT22;24934;52.752;6.964;2023-06-04T11:10:45;28.00;78.60
39219;DHT22;24934;52.752;6.964;2023-06-04T11:13:14;28.30;79.30
39219;DHT22;24934;52.752;6.964;2023-06-04T11:15:45;28.80;80.70
39219;DHT22;24934;52.752;6.964;2023-06-04T11:18:15;28.40;78.80
39219;DHT22;24934;52.752;6.964;2023-06-04T11:20:44;28.40;78.00
39219;DHT22;24934;52.752;6.964;2023-06-04T11:23:12;28.00;79.80
39219;DHT22;24934;52.752;6.964;2023-06-04T11:25:38;27.90;81.00
39219;DHT22;24934;52.752;6.964;2023-06-04T11:28:04;27.80;81.80
39219;DHT22;24934;52.752;6.964;2023-06-04T11:30:30;28.50;79.00
39219;DHT22;24934;52.752;6.964;2023-06-04T11:33:03;28.30;77.60
39219;DHT22;24934;52.752;6.964;2023-06-04T11:35:29;28.50;78.40
39219;DHT22;24934;52.752;6.964;2023-06-04T11:37:56;28.30;77.80
39219;DHT22;24934;52.752;6.964;2023-06-04T11:40:22;28.40;77.40
39219;DHT22;24934;52.752;6.964;2023-06-04T11:42:49;28.50;77.90
39219;DHT22;24934;52.752;6.964;2023-06-04T11:45:17;28.80;78.90
39219;DHT22;24934;52.752;6.964;2023-06-04T11:47:55;28.50;78.40
39219;DHT22;24934;52.752;6.964;2023-06-04T11:50:26;28.40;79.10
39219;DHT22;24934;52.752;6.964;2023-06-04T11:52:53;28.20;79.30
39219;DHT22;24934;52.752;6.964;2023-06-04T11:55:24;27.70;80.50
39219;DHT22;24934;52.752;6.964;2023-06-04T11:57:50;27.70;78.80
39219;DHT22;24934;52.752;6.964;2023-06-04T12:00:17;27.40;81.10
39219;DHT22;24934;52.752;6.964;2023-06-04T12:02:52;27.50;79.10
39219;DHT22;24934;52.752;6.964;2023-06-04T12:05:18;27.30;80.10
39219;DHT22;24934;52.752;6.964;2023-06-04T12:07:46;27.70;80.50
39219;DHT22;24934;52.752;6.964;2023-06-04T12:10:13;27.90;80.40
39219;DHT22;24934;52.752;6.964;2023-06-04T12:12:38;28.40;77.70
39219;DHT22;24934;52.752;6.964;2023-06-04T12:15:06;28.50;79.00
39219;DHT22;24934;52.752;6.964;2023-06-04T12:17:52;28.40;78.00
39219;DHT22;24934;52.752;6.964;2023-06-04T12:20:40;28.10;78.80
39219;DHT22;24934;52.752;6.964;2023-06-04T12:23:19;27.50;78.60
39219;DHT22;24934;52.752;6.964;2023-06-04T12:25:50;27.60;79.90
39219;DHT22;24934;52.752;6.964;2023-06-04T12:28:19;27.70;80.40
39219;DHT22;24934;52.752;6.964;2023-06-04T12:30:45;27.50;79.10
39219;DHT22;24934;52.752;6.964;2023-06-04T12:33:14;27.80;79.40
39219;DHT22;24934;52.752;6.964;2023-06-04T12:35:39;27.20;79.20
39219;DHT22;24934;52.752;6.964;2023-06-04T12:38:05;27.00;77.90
39219;DHT22;24934;52.752;6.964;2023-06-04T12:40:34;26.40;80.20
39219;DHT22;24934;52.752;6.964;2023-06-04T12:42:59;26.20;80.00
39219;DHT22;24934;52.752;6.964;2023-06-04T12:45:25;26.00;81.70
39219;DHT22;24934;52.752;6.964;2023-06-04T12:47:51;26.00;81.00
39219;DHT22;24934;52.752;6.964;2023-06-04T12:50:16;26.40;78.90
39219;DHT22;24934;52.752;6.964;2023-06-04T12:52:43;26.20;80.70
39219;DHT22;24934;52.752;6.964;2023-06-04T12:55:09;26.20;81.30
39219;DHT22;24934;52.752;6.964;2023-06-04T12:57:35;26.50;80.20
39219;DHT22;24934;52.752;6.964;2023-06-04T13:00:00;27.10;78.80
39219;DHT22;24934;52.752;6.964;2023-06-04T13:02:26;26.70;82.90
39219;DHT22;24934;52.752;6.964;2023-06-04T13:04:51;26.50;80.20
39219;DHT22;24934;52.752;6.964;2023-06-04T13:07:21;26.70;79.00
39219;DHT22;24934;52.752;6.964;2023-06-04T13:09:47;27.00;80.10
39219;DHT22;24934;52.752;6.964;2023-06-04T13:12:15;26.90;80.40
39219;DHT22;24934;52.752;6.964;2023-06-04T13:14:42;26.30;79.20
39219;DHT22;24934;52.752;6.964;2023-06-04T13:17:10;26.50;81.70
39219;DHT22;24934;52.752;6.964;2023-06-04T13:19:36;27.00;79.50
39219;DHT22;24934;52.752;6.964;2023-06-04T13:22:02;27.10;80.60
39219;DHT22;24934;52.752;6.964;2023-06-04T13:24:28;27.20;82.00
39219;DHT22;24934;52.752;6.964;2023-06-04T13:26:53;27.30;79.50
39219;DHT22;24934;52.752;6.964;2023-06-04T13:29:20;27.20;81.40
39219;DHT22;24934;52.752;6.964;2023-06-04T13:31:47;27.20;78.90
39219;DHT22;24934;52.752;6.964;2023-06-04T13:34:13;27.10;80.30
39219;DHT22;24934;52.752;6.964;2023-06-04T13:36:39;26.70;82.20
39219;DHT22;24934;52.752;6.964;2023-06-04T13:39:04;26.80;80.00
39219;DHT22;24934;52.752;6.964;2023-06-04T13:41:30;26.70;82.60
39219;DHT22;24934;52.752;6.964;2023-06-04T13:43:56;26.70;81.60
39219;DHT22;24934;52.752;6.964;2023-06-04T13:46:21;26.30;80.70
39219;DHT22;24934;52.752;6.964;2023-06-04T13:48:47;26.00;79.60
39219;DHT22;24934;52.752;6.964;2023-06-04T13:51:12;26.00;81.40
39219;DHT22;24934;52.752;6.964;2023-06-04T13:53:38;25.90;81.30
39219;DHT22;24934;52.752;6.964;2023-06-04T13:56:03;25.60;83.90
39219;DHT22;24934;52.752;6.964;2023-06-04T13:58:29;25.40;81.50
39219;DHT22;24934;52.752;6.964;2023-06-04T14:00:55;25.20;82.40
39219;DHT22;24934;52.752;6.964;2023-06-04T14:03:20;25.30;82.50
39219;DHT22;24934;52.752;6.964;2023-06-04T14:05:46;25.20;81.50
39219;DHT22;24934;52.752;6.964;2023-06-04T14:08:12;25.50;80.70
39219;DHT22;24934;52.752;6.964;2023-06-04T14:10:40;25.40;82.70
39219;DHT22;24934;52.752;6.964;2023-06-04T14:13:07;25.60;82.10
39219;DHT22;24934;52.752;6.964;2023-06-04T14:15:33;25.30;82.60
39219;DHT22;24934;52.752;6.964;2023-06-04T14:17:58;25.30;85.00
39219;DHT22;24934;52.752;6.964;2023-06-04T14:20:24;25.30;83.20
39219;DHT22;24934;52.752;6.964;2023-06-04T14:22:49;25.20;83.90
39219;DHT22;24934;52.752;6.964;2023-06-04T14:25:15;25.20;85.30
39219;DHT22;24934;52.752;6.964;2023-06-04T14:27:41;25.30;81.70
39219;DHT22;24934;52.752;6.964;2023-06-04T14:30:07;25.40;82.90
39219;DHT22;24934;52.752;6.964;2023-06-04T14:32:33;25.60;84.60
39219;DHT22;24934;52.752;6.964;2023-06-04T14:34:59;25.70;84.30
39219;DHT22;24934;52.752;6.964;2023-06-04T14:37:25;25.60;83.40
39219;DHT22;24934;52.752;6.964;2023-06-04T14:39:51;26.00;83.90
39219;DHT22;24934;52.752;6.964;2023-06-04T14:42:16;26.10;83.70
39219;DHT22;24934;52.752;6.964;2023-06-04T14:44:42;26.10;84.00
39219;DHT22;24934;52.752;6.964;2023-06-04T14:47:08;26.50;83.60
39219;DHT22;24934;52.752;6.964;2023-06-04T14:49:33;26.70;84.90
39219;DHT22;24934;52.752;6.964;2023-06-04T14:51:59;26.50;84.90
39219;DHT22;24934;52.752;6.964;2023-06-04T14:54:25;26.60;85.40
39219;DHT22;24934;52.752;6.964;2023-06-04T14:56:51;26.20;86.50
39219;DHT22;24934;52.752;6.964;2023-06-04T14:59:17;26.10;87.60
39219;DHT22;24934;52.752;6.964;2023-06-04T15:01:43;25.70;85.90
39219;DHT22;24934;52.752;6.964;2023-06-04T15:04:09;25.30;86.50
39219;DHT22;24934;52.752;6.964;2023-06-04T15:06:34;25.40;86.70
39219;DHT22;24934;52.752;6.964;2023-06-04T15:09:00;25.00;87.70
39219;DHT22;24934;52.752;6.964;2023-06-04T15:11:29;24.80;89.00
39219;DHT22;24934;52.752;6.964;2023-06-04T15:13:57;24.90;88.80
39219;DHT22;24934;52.752;6.964;2023-06-04T15:16:23;24.80;89.20
39219;DHT22;24934;52.752;6.964;2023-06-04T15:18:49;24.70;88.90
39219;DHT22;24934;52.752;6.964;2023-06-04T15:21:14;24.50;88.70
39219;DHT22;24934;52.752;6.964;2023-06-04T15:23:41;24.50;90.30
39219;DHT22;24934;52.752;6.964;2023-06-04T15:26:08;24.10;89.60
39219;DHT22;24934;52.752;6.964;2023-06-04T15:28:36;23.90;89.80
39219;DHT22;24934;52.752;6.964;2023-06-04T15:31:02;23.60;91.00
39219;DHT22;24934;52.752;6.964;2023-06-04T15:33:28;23.50;91.20
39219;DHT22;24934;52.752;6.964;2023-06-04T15:35:53;23.40;91.60
39219;DHT22;24934;52.752;6.964;2023-06-04T15:38:22;23.20;92.20
39219;DHT22;24934;52.752;6.964;2023-06-04T15:40:52;23.20;93.10
39219;DHT22;24934;52.752;6.964;2023-06-04T15:43:20;23.00;93.30